Charlevoix, MI

4:33 PM EST on December 26, 2014 (GMT -0500)
Charlevoix Municipal | Change Station
CLOSE
Current Station
Airport
Location: Charlevoix,
Elevation: 669 ft
Nearby Weather Stations

Elev 669 ft 45.30 °N, 85.27 °W | Updated 18 minutes ago

Overcast
Overcast
40 °F
Feels Like 36 °F
N
6
Wind Variable Wind from South

Today
High -- | Low -- °F
--% Chance of Precip.
Yesterday
High -- | Low -- °F
Precip. -- in
8:19 AM 5:04 PM
Waxing Crescent, 29% visible
Pressure 30.03 in
Visibility 10.0 miles
Clouds Overcast 2500 ft
Windchill 36 °F
Dew Point 36 °F
Humidity 84%
Rainfall 0.00 in
Snow Depth Not available.
UV 0 out of 12
Pollen .10 out of 12
Air Quality Not available.
Flu Activity Not available.
METAR KCVX 262115Z AUTO 19005KT 10SM OVC025 05/02 A3003 RMK AO2 T00450020

More Conditions Fewer Conditions

Pressure 30.03 in
Visibility 10.0 miles
Clouds Overcast 2500 ft
Windchill 36 °F
Dew Point 36 °F
Humidity 84%
Rainfall 0.00 in
Snow Depth Not available.
UV 0 out of 12
Pollen .10 out of 12
Air Quality Not available.
Flu Activity Not available.
METAR KCVX 262115Z AUTO 19005KT 10SM OVC025 05/02 A3003 RMK AO2 T00450020

More Conditions Fewer Conditions

Nowcast | as of 4:00 PM EST on December 26, 2014

At 5 PM...cloudy. Temperature 37. South winds 6 mph. At 7 PM...cloudy. Areas of fog. Temperature 36. South winds 5 mph. At 9 PM...cloudy. Areas of fog. Temperature 36. South winds 5 mph. At 11 PM...cloudy. Areas of fog. Temperature 36. Light winds.

×

10-Day Weather Forecast

Almanac

Astronomy

Dec. 26, 2014 Rise Set
Actual Time
Civil Twilight
Nautical Twilight
Astronomical Twilight
Moon
Length of Visible Light
Length of Day
Tomorrow will be .
, % of the Moon is Illuminated

Today's Extremes

State Highs State Lows

Community

WunderPhotos

Upload Photos

1,780,719 photos uploaded!

WunderBlogs® & News

Nearby

Air Quality

  Air Quality AQ Index Pollutant
Not available.

Snow Depth

Station Depth Elevation

Earthquake Activity

City Distance Mag. Time & Date
Minimum magnitude displayed is 2.5.

Coastal Water Temperatures

Place Temperature

Nearby Weather Stations